Weather at CFB Bagotville

Public forecast

Using degrees Celsius for public forecast. Weather courtesy of forecast.io.

Current aviation weather report (METAR) for CFB Bagotville

Retrieved 2021/07/30 01:00 UTC (25 minutes ago):

CYBG 300100Z 21004KT 25SM BKN040 OVC090 16/13 A2970 RMK SC6AC2 SLP059

Aviation forecast (TAF) for CFB Bagotville

Retrieved 2021-07-30 00:33 UTC (52 minutes ago):

TAF TAF CYBG 292330Z 3000/3024 22005KT P6SM BKN030 OVC060 TEMPO 3000/3008 5SM -RA BR OVC020 FM300800 28008KT 3SM -RA BR SCT005 OVC010 FM301400 28012KT P6SM -SHRA BKN015 RMK NXT FCST BY 300600Z